Terminal Aerodrome Forecast
Issued by NWS Cleveland, OH

Home | Current Version | Previous Version | Graphics & Text | Print | Product List | Glossary On
Versions: 1 2 3 4 5 6 7 8 9 10 11 12 13 14 15 16 17 18 19
380
FTUS41 KCLE 252335
TAFTOL
TAF
KTOL 252335Z 2600/2624 24012KT P6SM BKN070 BKN100
     FM260300 22012KT P6SM -SHRA BKN050
      TEMPO 2604/2607 5SM -TSRA BR BKN035CB
     FM260900 25012KT P6SM OVC035
     FM261300 30010KT P6SM OVC030
     FM261600 02010KT P6SM OVC020
      TEMPO 2616/2620 OVC015=

USA.gov is the U.S. government's official web portal to all federal, state and local government web resources and services.